createdAt,value
2018-03-31T00:01:39.132Z,92.55
2018-03-31T00:04:07.023Z,92.54
2018-03-31T00:06:33.981Z,92.55
2018-03-31T00:09:00.947Z,92.57
2018-03-31T00:11:27.938Z,92.61
2018-03-31T00:13:54.907Z,92.63
2018-03-31T00:16:22.415Z,92.64
2018-03-31T00:18:50.631Z,92.64
2018-03-31T00:21:18.537Z,92.59
2018-03-31T00:23:45.520Z,92.53
2018-03-31T00:26:12.507Z,92.51
2018-03-31T00:28:39.500Z,92.51
2018-03-31T00:31:06.437Z,92.53
2018-03-31T00:33:35.814Z,92.61
2018-03-31T00:36:03.135Z,92.65
2018-03-31T00:38:31.400Z,92.67
2018-03-31T00:40:58.377Z,92.72
2018-03-31T00:43:25.354Z,92.72
2018-03-31T00:45:52.311Z,92.67
2018-03-31T00:48:19.263Z,92.66
2018-03-31T00:50:47.531Z,92.64
2018-03-31T00:53:15.135Z,92.66
2018-03-31T00:55:43.467Z,92.67
2018-03-31T00:58:11.292Z,92.65
2018-03-31T01:00:38.268Z,92.66
2018-03-31T01:03:05.212Z,92.66
2018-03-31T01:05:32.182Z,92.67
2018-03-31T01:07:59.123Z,92.67
2018-03-31T01:10:27.873Z,92.67
2018-03-31T01:12:55.431Z,92.67
2018-03-31T01:15:23.921Z,92.65
2018-03-31T01:17:50.870Z,92.62
2018-03-31T01:20:17.830Z,92.64
2018-03-31T01:22:44.836Z,92.65
2018-03-31T01:25:11.827Z,92.65
2018-03-31T01:27:39.833Z,92.63
2018-03-31T01:30:07.368Z,92.63
2018-03-31T01:32:35.856Z,92.62
2018-03-31T01:35:02.788Z,92.65
2018-03-31T01:37:29.761Z,92.69
2018-03-31T01:39:56.730Z,92.79
2018-03-31T01:42:23.700Z,92.83
2018-03-31T01:44:51.720Z,92.84
2018-03-31T01:47:19.619Z,92.81
2018-03-31T01:49:48.028Z,92.77
2018-03-31T01:52:14.965Z,92.79
2018-03-31T01:54:41.965Z,92.81
2018-03-31T01:57:08.975Z,92.83
2018-03-31T01:59:35.964Z,92.83
2018-03-31T02:02:03.303Z,92.82
2018-03-31T02:04:31.910Z,92.83
2018-03-31T02:06:59.519Z,92.84
2018-03-31T02:09:26.484Z,92.83
2018-03-31T02:11:53.414Z,92.74
2018-03-31T02:14:20.363Z,92.66
2018-03-31T02:16:47.339Z,92.63
2018-03-31T02:19:15.467Z,92.62
2018-03-31T02:21:43.886Z,92.61
2018-03-31T02:24:11.529Z,92.64
2018-03-31T02:26:38.502Z,92.67
2018-03-31T02:29:05.493Z,92.68
2018-03-31T02:31:32.442Z,92.66
2018-03-31T02:33:59.424Z,92.56
2018-03-31T02:36:27.530Z,92.53
2018-03-31T02:38:55.968Z,92.52
2018-03-31T02:41:23.858Z,92.50
2018-03-31T02:43:50.805Z,92.35
2018-03-31T02:46:17.756Z,92.28
2018-03-31T02:48:44.717Z,92.23
2018-03-31T02:51:11.711Z,92.26
2018-03-31T02:53:39.338Z,92.37
2018-03-31T02:56:07.862Z,92.46
2018-03-31T02:58:35.620Z,92.43
2018-03-31T03:01:02.624Z,92.48
2018-03-31T03:03:29.580Z,92.52
2018-03-31T03:05:56.570Z,92.62
2018-03-31T03:08:23.583Z,92.68
2018-03-31T03:10:51.604Z,92.66
2018-03-31T03:13:20.097Z,92.65
2018-03-31T03:15:47.576Z,92.65
2018-03-31T03:18:14.559Z,92.67
2018-03-31T03:20:41.552Z,92.67
2018-03-31T03:23:08.549Z,92.71
2018-03-31T03:25:35.518Z,92.72
2018-03-31T03:28:03.468Z,92.69
2018-03-31T03:30:31.940Z,92.65
2018-03-31T03:32:59.446Z,92.66
2018-03-31T03:35:26.439Z,92.69
2018-03-31T03:37:53.398Z,92.70
2018-03-31T03:40:20.355Z,92.74
2018-03-31T03:42:47.322Z,92.74
2018-03-31T03:45:15.128Z,92.78
2018-03-31T03:47:42.956Z,92.78
2018-03-31T03:50:11.035Z,92.79
2018-03-31T03:52:37.988Z,92.81
2018-03-31T03:55:04.968Z,92.80
2018-03-31T03:57:31.944Z,92.77
2018-03-31T03:59:58.960Z,92.77
2018-03-31T04:02:26.968Z,92.78
2018-03-31T04:04:55.048Z,92.83
2018-03-31T04:07:22.964Z,92.82
2018-03-31T04:09:49.938Z,92.83
2018-03-31T04:12:16.911Z,92.83
2018-03-31T04:14:43.873Z,92.85
2018-03-31T04:17:10.836Z,92.87
2018-03-31T04:19:40.224Z,92.85
2018-03-31T04:22:07.879Z,92.85
2018-03-31T04:24:35.299Z,92.91
2018-03-31T04:27:02.276Z,92.91
2018-03-31T04:29:29.241Z,92.90
2018-03-31T04:31:56.250Z,92.92
2018-03-31T04:34:23.218Z,92.93
2018-03-31T04:36:51.132Z,92.94
2018-03-31T04:39:19.628Z,92.94
2018-03-31T04:41:47.251Z,92.93
2018-03-31T04:44:14.199Z,92.99
2018-03-31T04:46:41.176Z,92.96
2018-03-31T04:49:08.171Z,92.93
2018-03-31T04:51:35.167Z,92.93
2018-03-31T04:54:02.885Z,92.89
2018-03-31T04:56:32.351Z,92.84
2018-03-31T04:58:59.288Z,92.81
2018-03-31T05:01:26.295Z,92.79
2018-03-31T05:03:53.245Z,92.73
2018-03-31T05:06:20.269Z,92.69
2018-03-31T05:08:47.220Z,92.67
2018-03-31T05:11:15.548Z,92.64
2018-03-31T05:13:43.401Z,92.63
2018-03-31T05:16:11.517Z,92.61
2018-03-31T05:18:39.609Z,92.57
2018-03-31T05:21:06.587Z,92.56
2018-03-31T05:23:33.543Z,92.55
2018-03-31T05:26:00.523Z,92.51
2018-03-31T05:28:27.615Z,92.48
2018-03-31T05:30:55.253Z,92.45
2018-03-31T05:33:23.353Z,92.45
2018-03-31T05:35:51.349Z,92.42
2018-03-31T05:38:18.339Z,92.39
2018-03-31T05:40:45.295Z,92.32
2018-03-31T05:43:12.238Z,92.22
2018-03-31T05:54:18.211Z,92.21
2018-03-31T05:56:45.244Z,92.25
2018-03-31T05:59:12.219Z,92.24
2018-03-31T06:01:39.152Z,92.21
2018-03-31T06:04:07.144Z,92.19
2018-03-31T06:06:35.499Z,92.21
2018-03-31T06:09:03.968Z,92.20
2018-03-31T06:11:31.413Z,92.20
2018-03-31T06:13:58.451Z,92.24
2018-03-31T06:16:25.412Z,92.26
2018-03-31T06:18:52.408Z,92.25
2018-03-31T06:21:19.531Z,92.23
2018-03-31T06:23:48.120Z,92.23
2018-03-31T06:26:15.480Z,92.17
2018-03-31T06:28:44.405Z,92.11
2018-03-31T06:31:11.406Z,92.08
2018-03-31T06:33:38.388Z,92.02
2018-03-31T06:36:05.359Z,91.95
2018-03-31T06:38:33.607Z,91.88
2018-03-31T06:41:01.683Z,91.83
2018-03-31T06:43:31.315Z,91.82
2018-03-31T06:46:02.366Z,91.80
2018-03-31T06:48:29.416Z,91.70
2018-03-31T06:50:56.395Z,91.57
2018-03-31T06:53:23.438Z,91.55
2018-03-31T06:55:53.589Z,91.40
2018-03-31T06:58:21.575Z,91.33
2018-03-31T07:00:49.563Z,91.31
2018-03-31T07:03:18.343Z,91.29
2018-03-31T07:05:45.320Z,91.25
2018-03-31T07:08:12.296Z,91.23
2018-03-31T07:10:39.295Z,91.14
2018-03-31T07:13:06.568Z,91.11
2018-03-31T07:15:34.723Z,91.08
2018-03-31T07:18:04.343Z,91.09
2018-03-31T07:20:31.349Z,91.08
2018-03-31T07:22:58.289Z,91.04
2018-03-31T07:25:25.275Z,91.04
2018-03-31T07:27:52.230Z,91.05
2018-03-31T07:30:19.230Z,91.06
2018-03-31T07:32:47.154Z,91.12
2018-03-31T07:35:15.348Z,91.07
2018-03-31T07:37:43.952Z,91.09
2018-03-31T07:40:10.898Z,91.17
2018-03-31T07:42:37.834Z,91.19
2018-03-31T07:45:04.826Z,91.19
2018-03-31T07:47:31.797Z,91.33
2018-03-31T07:53:04.482Z,91.41
2018-03-31T07:55:31.463Z,91.42
2018-03-31T07:57:58.426Z,91.48
2018-03-31T08:00:25.402Z,91.54
2018-03-31T08:02:52.354Z,91.52
2018-03-31T08:05:19.584Z,91.39
2018-03-31T08:07:46.624Z,91.30
2018-03-31T08:10:13.891Z,91.26
2018-03-31T08:12:40.981Z,91.30
2018-03-31T08:15:08.179Z,91.33
2018-03-31T08:17:35.197Z,91.38
2018-03-31T08:20:02.257Z,91.47
2018-03-31T08:22:29.308Z,91.47
2018-03-31T08:24:56.325Z,91.47
2018-03-31T08:27:23.435Z,91.46
2018-03-31T08:29:51.621Z,91.39
2018-03-31T08:32:18.683Z,91.37
2018-03-31T08:34:45.684Z,91.32
2018-03-31T08:37:12.675Z,91.29
2018-03-31T08:39:39.748Z,91.24
2018-03-31T08:42:08.025Z,91.25
2018-03-31T08:44:35.498Z,91.28
2018-03-31T08:47:04.123Z,91.31
2018-03-31T08:49:31.099Z,91.36
2018-03-31T08:51:58.117Z,91.31
2018-03-31T08:54:25.093Z,91.25
2018-03-31T08:56:52.121Z,91.20
2018-03-31T08:59:19.529Z,91.06
2018-03-31T09:01:46.662Z,90.99
2018-03-31T09:04:14.704Z,90.91
2018-03-31T09:06:41.722Z,90.92
2018-03-31T09:09:08.729Z,90.89
2018-03-31T09:11:35.717Z,90.84
2018-03-31T09:14:02.817Z,90.71
2018-03-31T09:16:33.882Z,90.58
2018-03-31T09:19:00.976Z,90.43
2018-03-31T09:21:29.798Z,90.29
2018-03-31T09:23:56.812Z,90.21
2018-03-31T09:26:23.867Z,90.16
2018-03-31T09:28:50.888Z,90.15
2018-03-31T09:31:17.920Z,90.18
2018-03-31T09:33:46.717Z,90.19
2018-03-31T09:36:15.764Z,90.11
2018-03-31T09:38:44.049Z,90.03
2018-03-31T09:41:11.536Z,89.95
2018-03-31T09:43:38.544Z,89.97
2018-03-31T09:46:05.560Z,89.98
2018-03-31T09:48:32.618Z,89.91
2018-03-31T09:50:59.677Z,89.84
2018-03-31T09:53:27.645Z,89.67
2018-03-31T09:55:55.963Z,89.57
2018-03-31T09:58:23.381Z,89.30
2018-03-31T10:03:43.562Z,88.35
2018-03-31T10:06:10.675Z,88.21
2018-03-31T10:08:38.831Z,88.15
2018-03-31T10:11:08.369Z,88.18
2018-03-31T10:13:35.460Z,88.04
2018-03-31T10:16:02.495Z,87.96
2018-03-31T10:18:29.483Z,87.78
2018-03-31T10:20:56.469Z,87.77
2018-03-31T10:23:23.467Z,87.93
2018-03-31T10:25:51.651Z,88.17
2018-03-31T10:28:20.609Z,87.84
2018-03-31T10:30:51.548Z,87.38
2018-03-31T10:33:19.900Z,86.90
2018-03-31T10:35:46.893Z,86.89
2018-03-31T10:38:13.924Z,86.73
2018-03-31T10:40:40.974Z,87.00
2018-03-31T10:43:08.103Z,86.49
2018-03-31T10:45:35.492Z,85.80
2018-03-31T10:48:03.900Z,85.10
2018-03-31T10:50:32.409Z,84.77
2018-03-31T10:52:59.418Z,84.35
2018-03-31T10:55:26.422Z,84.24
2018-03-31T10:57:53.495Z,84.13
2018-03-31T11:00:20.720Z,83.92
2018-03-31T11:02:48.719Z,84.36
2018-03-31T11:05:16.019Z,84.11
2018-03-31T11:07:43.917Z,83.63
2018-03-31T11:10:10.969Z,83.24
2018-03-31T11:12:38.019Z,83.45
2018-03-31T11:15:05.001Z,83.60
2018-03-31T11:17:32.080Z,83.24
2018-03-31T11:19:59.694Z,83.46
2018-03-31T11:22:28.252Z,83.33
2018-03-31T11:24:55.724Z,82.80
2018-03-31T11:27:22.748Z,82.65
2018-03-31T11:29:49.743Z,82.56
2018-03-31T11:32:16.958Z,82.58
2018-03-31T11:34:43.996Z,82.25
2018-03-31T11:37:12.256Z,81.87
2018-03-31T11:42:21.572Z,82.28
2018-03-31T11:44:48.638Z,81.87
2018-03-31T11:47:15.624Z,82.06
2018-03-31T11:49:42.637Z,82.00
2018-03-31T11:52:11.665Z,81.93
2018-03-31T11:54:40.680Z,81.75
2018-03-31T11:57:12.498Z,81.95
2018-03-31T11:59:39.536Z,82.23
2018-03-31T12:02:06.575Z,81.75
2018-03-31T12:04:33.574Z,81.56
2018-03-31T12:07:00.592Z,81.29
2018-03-31T12:12:14.329Z,80.66
2018-03-31T12:14:48.636Z,80.76
2018-03-31T12:17:18.492Z,80.96
2018-03-31T12:19:45.501Z,80.50
2018-03-31T12:22:12.543Z,80.70
2018-03-31T12:24:39.588Z,80.22
2018-03-31T12:27:14.526Z,79.22
2018-03-31T12:29:44.116Z,79.21
2018-03-31T12:35:13.752Z,78.42
2018-03-31T12:37:40.869Z,77.84
2018-03-31T12:40:07.889Z,77.79
2018-03-31T12:42:35.049Z,78.00
2018-03-31T12:53:18.232Z,78.91
2018-03-31T12:55:45.280Z,78.67
2018-03-31T12:58:12.329Z,77.91
2018-03-31T13:00:40.512Z,77.22
2018-03-31T13:03:07.686Z,76.89
2018-03-31T13:05:38.461Z,76.19
2018-03-31T13:08:24.655Z,75.51
2018-03-31T13:10:54.568Z,75.34
2018-03-31T13:13:21.663Z,75.06
2018-03-31T13:15:48.736Z,74.92
2018-03-31T13:18:15.994Z,75.02
2018-03-31T13:23:31.576Z,74.67
2018-03-31T13:26:03.828Z,74.86
2018-03-31T13:28:31.019Z,74.64
2018-03-31T13:30:58.088Z,74.50
2018-03-31T13:33:25.102Z,73.36
2018-03-31T13:35:52.383Z,73.16
2018-03-31T13:38:22.615Z,73.29
2018-03-31T13:40:54.454Z,73.84
2018-03-31T13:46:11.404Z,72.71
2018-03-31T13:48:38.435Z,72.96
2018-03-31T13:51:05.523Z,73.21
2018-03-31T13:53:32.632Z,73.43
2018-03-31T13:55:59.678Z,73.35
2018-03-31T13:58:27.857Z,73.57
2018-03-31T14:00:56.486Z,73.57
2018-03-31T14:03:23.524Z,73.44
2018-03-31T14:05:50.555Z,73.95
2018-03-31T14:08:17.627Z,74.04
2018-03-31T14:13:47.577Z,73.82
2018-03-31T14:16:15.580Z,72.95
2018-03-31T14:18:42.588Z,71.01
2018-03-31T14:21:09.651Z,71.18
2018-03-31T14:23:36.660Z,69.76
2018-03-31T14:26:03.764Z,70.15
2018-03-31T14:28:31.733Z,69.82
2018-03-31T14:30:59.367Z,70.32
2018-03-31T14:33:27.843Z,70.19
2018-03-31T14:35:54.860Z,69.92
2018-03-31T14:38:21.897Z,69.98
2018-03-31T14:40:48.916Z,70.69
2018-03-31T14:43:16.025Z,71.28
2018-03-31T14:45:43.116Z,71.21
2018-03-31T14:48:11.021Z,70.42
2018-03-31T14:50:40.564Z,70.92
2018-03-31T14:53:07.576Z,71.28
2018-03-31T14:55:34.631Z,71.67
2018-03-31T14:58:01.664Z,72.00
2018-03-31T15:00:28.724Z,72.08
2018-03-31T15:02:55.792Z,72.16
2018-03-31T15:05:23.945Z,72.25
2018-03-31T15:07:51.320Z,72.16
2018-03-31T15:10:19.944Z,71.84
2018-03-31T15:12:46.961Z,71.39
2018-03-31T15:15:14.014Z,71.25
2018-03-31T15:17:41.088Z,71.47
2018-03-31T15:20:08.328Z,71.73
2018-03-31T15:22:36.460Z,72.05
2018-03-31T15:25:03.851Z,72.33
2018-03-31T15:27:39.416Z,72.27
2018-03-31T15:30:06.420Z,72.33
2018-03-31T15:32:33.444Z,72.39
2018-03-31T15:35:00.488Z,71.97
2018-03-31T15:37:27.683Z,71.58
2018-03-31T15:39:55.550Z,71.42
2018-03-31T15:42:23.425Z,71.80
2018-03-31T15:44:51.507Z,71.88
2018-03-31T15:47:18.601Z,72.38
2018-03-31T15:49:45.612Z,72.71
2018-03-31T15:52:12.635Z,72.32
2018-03-31T15:54:39.695Z,71.34
2018-03-31T15:57:07.689Z,71.64
2018-03-31T15:59:35.821Z,71.49
2018-03-31T16:02:11.591Z,71.29
2018-03-31T16:04:39.780Z,71.79
2018-03-31T16:07:06.878Z,71.80
2018-03-31T16:09:34.032Z,71.78
2018-03-31T16:21:09.938Z,74.41
2018-03-31T16:23:36.965Z,74.79
2018-03-31T16:26:04.006Z,75.00
2018-03-31T16:28:50.511Z,75.10
2018-03-31T16:31:18.535Z,75.42
2018-03-31T16:37:07.174Z,76.11
2018-03-31T16:39:34.188Z,76.33
2018-03-31T16:42:01.218Z,76.24
2018-03-31T16:44:28.331Z,76.18
2018-03-31T16:46:55.857Z,76.11
2018-03-31T16:49:28.265Z,75.76
2018-03-31T16:51:59.835Z,75.21
2018-03-31T16:54:26.829Z,75.22
2018-03-31T16:56:53.861Z,75.25
2018-03-31T16:59:20.935Z,74.88
2018-03-31T17:01:47.964Z,74.75
2018-03-31T17:04:15.868Z,74.82
2018-03-31T17:06:43.986Z,75.03
2018-03-31T17:09:11.642Z,75.25
2018-03-31T17:11:38.677Z,75.38
2018-03-31T17:14:05.684Z,75.51
2018-03-31T17:16:32.710Z,75.71
2018-03-31T17:18:59.721Z,76.02
2018-03-31T17:31:15.195Z,75.62
2018-03-31T17:33:42.239Z,75.65
2018-03-31T17:36:12.539Z,75.71
2018-03-31T17:47:47.860Z,75.60
2018-03-31T17:52:50.112Z,75.80
2018-03-31T18:04:26.775Z,75.74
2018-03-31T18:06:54.069Z,75.47
2018-03-31T18:09:21.249Z,75.42
2018-03-31T18:20:57.274Z,73.95
2018-03-31T18:23:24.426Z,74.17
2018-03-31T18:25:51.606Z,74.41
2018-03-31T18:37:27.521Z,75.77
2018-03-31T18:39:54.570Z,75.86
2018-03-31T18:42:21.650Z,76.20
2018-03-31T18:53:58.794Z,75.48
2018-03-31T18:56:27.011Z,75.54
2018-03-31T18:59:02.112Z,75.56
2018-03-31T19:01:42.069Z,75.67
2018-03-31T19:13:18.005Z,76.29
2018-03-31T19:15:56.215Z,76.31
2018-03-31T19:18:23.981Z,76.49
2018-03-31T19:33:04.229Z,76.92
2018-03-31T20:04:40.232Z,76.52
2018-03-31T20:19:19.335Z,76.19
2018-03-31T20:21:46.462Z,76.16
2018-03-31T20:24:13.512Z,76.13
2018-03-31T20:26:40.633Z,76.21
2018-03-31T20:38:16.739Z,76.92
2018-03-31T20:40:43.813Z,76.93
2018-03-31T20:43:10.910Z,76.99
2018-03-31T20:54:45.342Z,76.84
2018-03-31T20:57:12.396Z,76.87
2018-03-31T20:59:39.450Z,76.92
2018-03-31T21:11:16.026Z,76.10
2018-03-31T21:13:43.146Z,76.06
2018-03-31T21:16:10.203Z,76.05
2018-03-31T21:27:46.594Z,76.63
2018-03-31T21:30:13.779Z,76.74
2018-03-31T21:32:41.782Z,76.87
2018-03-31T21:46:52.533Z,77.14
2018-03-31T21:49:19.693Z,77.10
2018-03-31T21:51:46.743Z,76.98
2018-03-31T22:03:23.056Z,76.69
2018-03-31T22:05:50.100Z,76.68
2018-03-31T22:08:17.280Z,76.73
2018-03-31T22:19:53.741Z,77.23
2018-03-31T22:22:20.846Z,77.34
2018-03-31T22:24:48.655Z,77.45
2018-03-31T22:36:26.099Z,77.87
2018-03-31T22:38:53.360Z,78.01
2018-03-31T22:41:20.573Z,78.10
2018-03-31T22:52:57.076Z,78.56
2018-03-31T22:55:24.248Z,78.60
2018-03-31T22:57:51.422Z,78.61
2018-03-31T23:00:18.564Z,78.64
2018-03-31T23:11:55.452Z,78.77
2018-03-31T23:14:23.221Z,78.84
2018-03-31T23:16:50.409Z,78.88
2018-03-31T23:28:27.950Z,79.17
2018-03-31T23:30:55.658Z,79.23
2018-03-31T23:33:22.788Z,79.29
2018-03-31T23:44:58.361Z,79.52
2018-03-31T23:47:26.418Z,79.63
2018-03-31T23:49:54.208Z,79.67
